Time;durP1;ratioP1;P1;durP2;ratioP2;P2;SDS_P1;SDS_P2;PMS_P1;PMS_P2;Temp;Humidity;BMP_temperature;BMP_pressure;BME280_temperature;BME280_humidity;BME280_pressure;Samples;Min_cycle;Max_cycle;Signal;HPM_P1;HPM_P2
2022/08/27 00:00:03;;;;;;;7.30;1.20;;;17.80;99.90;;;;;;7395577;19;20010;-81
2022/08/27 00:02:29;;;;;;;7.60;1.27;;;17.80;99.90;;;;;;7394887;19;20082;-81
2022/08/27 00:04:55;;;;;;;9.30;1.45;;;17.80;99.90;;;;;;7394803;19;20368;-80
2022/08/27 00:07:21;;;;;;;4.30;1.10;;;17.80;99.90;;;;;;7394904;19;20349;-80
2022/08/27 00:09:47;;;;;;;6.45;1.13;;;17.80;99.90;;;;;;7393547;19;20539;-80
2022/08/27 00:12:13;;;;;;;4.85;1.30;;;17.80;99.90;;;;;;7393072;19;20011;-81
2022/08/27 00:14:38;;;;;;;6.97;1.05;;;17.70;99.90;;;;;;7395287;19;20019;-81
2022/08/27 00:17:09;;;;;;;4.13;1.02;;;17.80;99.90;;;;;;7394333;19;20014;-80
2022/08/27 00:19:35;;;;;;;6.35;1.00;;;17.80;99.90;;;;;;7392885;19;20025;-80
2022/08/27 00:22:03;;;;;;;5.40;1.20;;;17.70;99.90;;;;;;7392724;19;20014;-80
2022/08/27 00:24:29;;;;;;;6.82;1.25;;;17.70;99.90;;;;;;7392893;19;20018;-80
2022/08/27 00:26:55;;;;;;;5.25;1.45;;;17.70;99.90;;;;;;7392484;19;20352;-81
2022/08/27 00:29:21;;;;;;;4.72;1.00;;;17.70;99.90;;;;;;7393994;19;20017;-80
2022/08/27 00:31:47;;;;;;;4.25;1.45;;;17.60;99.90;;;;;;7394328;19;20011;-81
2022/08/27 00:34:13;;;;;;;5.47;1.30;;;17.60;99.90;;;;;;7392623;19;20006;-81
2022/08/27 00:36:40;;;;;;;5.70;1.10;;;17.60;99.90;;;;;;7394375;19;20007;-81
2022/08/27 00:39:06;;;;;;;6.07;1.13;;;17.60;99.90;;;;;;7392194;19;20051;-81
2022/08/27 00:41:32;;;;;;;4.22;1.00;;;17.60;99.90;;;;;;7393697;19;20475;-80
2022/08/27 00:43:59;;;;;;;7.10;1.40;;;17.60;99.90;;;;;;7393513;19;20070;-80
2022/08/27 00:46:48;;;;;;;7.95;1.60;;;17.60;99.90;;;;;;7394677;19;20014;-80
2022/08/27 00:49:17;;;;;;;7.68;1.55;;;17.60;99.90;;;;;;7393844;19;20018;-80
2022/08/27 00:51:49;;;;;;;7.63;1.50;;;17.60;99.90;;;;;;7393422;19;20010;-80
2022/08/27 00:54:16;;;;;;;6.68;1.60;;;17.60;99.90;;;;;;7393334;19;20070;-81
2022/08/27 00:56:43;;;;;;;4.60;1.23;;;17.60;99.90;;;;;;7393839;19;20504;-80
2022/08/27 00:59:13;;;;;;;7.20;1.30;;;17.60;99.90;;;;;;7393836;19;20007;-81
2022/08/27 01:02:17;;;;;;;5.25;1.40;;;17.60;99.90;;;;;;7390585;19;20018;-81
2022/08/27 01:04:27;;;;;;;5.85;1.40;;;17.50;99.90;;;;;;7393098;19;20110;-80
2022/08/27 01:06:54;;;;;;;4.90;1.08;;;17.50;99.90;;;;;;7391449;19;20099;-81
2022/08/27 01:09:20;;;;;;;3.10;1.23;;;17.50;99.90;;;;;;7391274;19;20016;-80
2022/08/27 01:11:47;;;;;;;6.43;1.30;;;17.40;99.90;;;;;;7393383;19;20482;-80
2022/08/27 01:14:14;;;;;;;9.68;1.50;;;17.40;99.90;;;;;;7391886;19;20011;-81
2022/08/27 01:16:44;;;;;;;5.18;1.20;;;17.30;99.90;;;;;;7392691;19;20491;-81
2022/08/27 01:19:23;;;;;;;5.85;1.63;;;17.40;99.90;;;;;;7391923;19;20010;-80
2022/08/27 01:22:32;;;;;;;5.55;1.27;;;17.40;99.90;;;;;;7392957;19;20011;-80
2022/08/27 01:25:07;;;;;;;6.90;1.30;;;17.30;99.90;;;;;;7391658;19;20010;-81
2022/08/27 01:27:33;;;;;;;6.88;1.50;;;17.20;99.90;;;;;;7391762;19;20373;-81
2022/08/27 01:30:00;;;;;;;5.95;1.50;;;17.20;99.90;;;;;;7391008;19;20025;-80
2022/08/27 01:32:31;;;;;;;6.60;1.27;;;17.20;99.90;;;;;;7391115;19;20014;-80
2022/08/27 01:34:57;;;;;;;5.15;1.08;;;17.20;99.90;;;;;;7392344;19;20010;-80
2022/08/27 01:37:25;;;;;;;5.25;1.25;;;17.20;99.90;;;;;;7392310;19;20019;-80
2022/08/27 01:39:53;;;;;;;7.03;1.70;;;17.10;99.90;;;;;;7390594;19;20024;-81
2022/08/27 01:42:33;;;;;;;7.35;1.42;;;17.00;99.90;;;;;;7391741;19;20037;-80
2022/08/27 01:45:03;;;;;;;7.13;1.42;;;17.00;99.90;;;;;;7391434;19;20483;-80
2022/08/27 01:47:29;;;;;;;6.47;1.38;;;17.00;99.90;;;;;;7396041;19;20038;-80
2022/08/27 01:49:55;;;;;;;7.13;1.50;;;16.90;99.90;;;;;;7391414;19;20030;-80
2022/08/27 01:52:25;;;;;;;11.20;1.98;;;16.90;99.90;;;;;;7391051;19;20015;-81
2022/08/27 01:54:52;;;;;;;6.15;1.35;;;16.90;99.90;;;;;;7391719;19;20514;-80
2022/08/27 01:57:19;;;;;;;9.60;1.23;;;16.90;99.90;;;;;;7391989;19;20006;-80
2022/08/27 01:59:45;;;;;;;6.15;1.45;;;16.90;99.90;;;;;;7391781;19;20348;-80
2022/08/27 02:02:15;;;;;;;5.35;1.40;;;16.90;99.90;;;;;;7391466;19;20010;-80
2022/08/27 02:04:42;;;;;;;5.57;1.60;;;16.90;99.90;;;;;;7389808;19;20445;-80
2022/08/27 02:07:08;;;;;;;6.13;1.00;;;16.90;99.90;;;;;;7391500;19;20078;-80
2022/08/27 02:09:34;;;;;;;8.32;1.95;;;16.90;99.90;;;;;;7391106;19;20003;-80
2022/08/27 02:12:01;;;;;;;6.97;1.40;;;16.90;99.90;;;;;;7394501;19;20017;-80
2022/08/27 02:14:27;;;;;;;4.65;1.10;;;16.90;99.90;;;;;;7398689;19;20031;-80
2022/08/27 02:16:54;;;;;;;7.93;1.50;;;17.00;99.90;;;;;;7398638;19;20015;-80
2022/08/27 02:19:22;;;;;;;5.70;1.70;;;17.00;99.90;;;;;;7397125;19;20021;-81
2022/08/27 02:21:48;;;;;;;10.48;1.40;;;17.00;99.90;;;;;;7398065;19;20011;-80
2022/08/27 02:24:15;;;;;;;6.32;1.60;;;17.00;99.90;;;;;;7396725;19;20014;-80
2022/08/27 02:26:41;;;;;;;6.03;1.60;;;17.00;99.90;;;;;;7394354;19;20542;-80
2022/08/27 02:29:07;;;;;;;9.60;1.85;;;17.00;99.90;;;;;;7396042;19;20010;-81
2022/08/27 02:31:33;;;;;;;6.30;1.52;;;17.00;99.90;;;;;;7398336;19;20371;-80
2022/08/27 02:33:59;;;;;;;5.85;1.40;;;17.00;99.90;;;;;;7398072;19;20014;-80
2022/08/27 02:36:25;;;;;;;6.15;1.58;;;16.90;99.90;;;;;;7397096;19;20010;-80
2022/08/27 02:38:51;;;;;;;5.97;1.50;;;17.00;99.90;;;;;;7397920;19;20085;-80
2022/08/27 02:41:17;;;;;;;8.05;1.60;;;17.00;99.90;;;;;;7397806;19;20015;-80
2022/08/27 02:43:44;;;;;;;9.85;1.75;;;17.00;99.90;;;;;;7398284;19;20010;-80
2022/08/27 02:46:10;;;;;;;7.97;2.08;;;17.00;99.90;;;;;;7397344;19;20019;-80
2022/08/27 02:48:38;;;;;;;7.38;1.40;;;17.10;99.90;;;;;;7398947;19;20021;-80
2022/08/27 02:51:05;;;;;;;9.32;1.40;;;17.10;99.90;;;;;;7396967;19;20017;-80
2022/08/27 02:53:32;;;;;;;6.38;1.55;;;17.10;99.90;;;;;;7396215;19;20015;-80
2022/08/27 02:55:59;;;;;;;7.28;1.50;;;17.10;99.90;;;;;;7397817;19;20031;-80
2022/08/27 02:58:24;;;;;;;7.60;1.60;;;17.10;99.90;;;;;;7395656;19;20006;-80
2022/08/27 03:00:50;;;;;;;7.20;1.40;;;17.10;99.90;;;;;;7396043;19;20007;-80
2022/08/27 03:03:17;;;;;;;5.70;1.40;;;17.10;99.90;;;;;;7397000;19;20018;-80
2022/08/27 03:05:42;;;;;;;5.68;1.50;;;17.10;99.90;;;;;;7395723;19;20077;-80
2022/08/27 03:08:08;;;;;;;9.25;1.70;;;17.10;99.90;;;;;;7398431;19;20047;-80
2022/08/27 03:10:34;;;;;;;9.48;2.05;;;17.10;99.90;;;;;;7395677;19;20031;-80
2022/08/27 03:13:00;;;;;;;7.47;1.50;;;17.10;99.90;;;;;;7397482;19;20011;-80
2022/08/27 03:15:27;;;;;;;6.07;1.60;;;17.10;99.90;;;;;;7396568;19;20066;-80
2022/08/27 03:20:42;;;;;;;5.95;1.70;;;17.10;99.90;;;;;;7396389;19;20014;-80
2022/08/27 03:23:09;;;;;;;7.22;1.50;;;17.20;99.90;;;;;;7394757;19;20475;-80
2022/08/27 03:25:36;;;;;;;5.90;1.38;;;17.20;99.90;;;;;;7394806;19;20019;-80
2022/08/27 03:28:03;;;;;;;6.53;1.55;;;17.20;99.90;;;;;;7395123;19;20011;-80
2022/08/27 03:30:29;;;;;;;8.85;1.50;;;17.20;99.90;;;;;;7396167;19;20070;-80
2022/08/27 03:32:54;;;;;;;5.07;1.60;;;17.20;99.90;;;;;;7395812;19;20024;-80
2022/08/27 03:35:21;;;;;;;6.38;1.73;;;17.20;99.90;;;;;;7396144;19;20014;-80
2022/08/27 03:37:47;;;;;;;6.28;1.58;;;17.20;99.90;;;;;;7396253;19;20015;-80
2022/08/27 03:40:14;;;;;;;8.85;1.70;;;17.20;99.90;;;;;;7394356;19;20376;-80
2022/08/27 03:42:41;;;;;;;6.47;1.42;;;17.20;99.90;;;;;;7394554;19;20010;-80
2022/08/27 03:45:08;;;;;;;6.63;1.55;;;17.20;99.90;;;;;;7395168;19;20013;-80
2022/08/27 03:47:34;;;;;;;5.47;1.77;;;17.20;99.90;;;;;;7399832;19;20360;-80
2022/08/27 03:50:00;;;;;;;7.85;1.70;;;17.20;99.90;;;;;;7395222;19;20341;-80
2022/08/27 03:52:28;;;;;;;5.38;1.63;;;17.20;99.90;;;;;;7395334;19;20034;-80
2022/08/27 03:54:53;;;;;;;7.07;1.60;;;17.20;99.90;;;;;;7395290;19;20014;-80
2022/08/27 03:57:20;;;;;;;9.45;1.95;;;17.20;99.90;;;;;;7393752;19;20027;-80
2022/08/27 03:59:46;;;;;;;6.38;1.65;;;17.20;99.90;;;;;;7395466;19;20010;-81
2022/08/27 04:02:12;;;;;;;9.90;1.85;;;17.20;99.90;;;;;;7393734;19;20360;-80
2022/08/27 04:04:37;;;;;;;8.32;1.40;;;17.10;99.90;;;;;;7393834;19;20010;-80
2022/08/27 04:07:03;;;;;;;7.30;1.60;;;17.10;99.90;;;;;;7394109;19;20117;-80
2022/08/27 04:09:29;;;;;;;9.27;1.95;;;17.10;99.90;;;;;;7394970;19;20441;-80
2022/08/27 04:11:55;;;;;;;6.65;1.80;;;17.10;99.90;;;;;;7394778;19;20021;-81
2022/08/27 04:14:21;;;;;;;4.43;1.45;;;17.10;99.90;;;;;;7395015;19;20030;-80
2022/08/27 04:16:47;;;;;;;8.40;2.00;;;17.10;99.90;;;;;;7394578;19;20021;-80
2022/08/27 04:19:13;;;;;;;5.75;1.52;;;17.10;99.90;;;;;;7393817;19;20487;-80
2022/08/27 04:21:39;;;;;;;6.00;1.50;;;17.00;99.90;;;;;;7393714;19;20033;-80
2022/08/27 04:24:05;;;;;;;6.60;1.55;;;16.90;99.90;;;;;;7392975;19;20011;-80
2022/08/27 04:26:31;;;;;;;5.78;1.58;;;16.90;99.90;;;;;;7393074;19;20011;-80
2022/08/27 04:28:57;;;;;;;5.95;1.60;;;16.90;99.90;;;;;;7392607;19;20014;-80
2022/08/27 04:31:24;;;;;;;6.70;1.73;;;16.90;99.90;;;;;;7393057;19;20417;-80
2022/08/27 04:33:52;;;;;;;5.90;1.63;;;16.90;99.90;;;;;;7394141;19;20014;-81
2022/08/27 04:36:19;;;;;;;7.00;1.85;;;16.80;99.90;;;;;;7392155;19;20010;-80
2022/08/27 04:38:45;;;;;;;7.65;1.52;;;16.80;99.90;;;;;;7394453;19;20044;-80
2022/08/27 04:41:21;;;;;;;6.40;1.55;;;16.80;99.90;;;;;;7393825;19;20485;-80
2022/08/27 04:43:49;;;;;;;6.32;1.70;;;16.70;99.90;;;;;;7391952;19;20018;-81
2022/08/27 04:46:24;;;;;;;8.90;2.15;;;16.60;99.90;;;;;;7393265;19;20010;-80
2022/08/27 04:48:50;;;;;;;5.90;1.73;;;16.60;99.90;;;;;;7393774;19;20018;-80
2022/08/27 04:51:16;;;;;;;6.50;1.92;;;16.60;99.90;;;;;;7391471;19;20014;-80
2022/08/27 04:53:42;;;;;;;8.60;1.95;;;16.60;99.90;;;;;;7393228;19;20014;-80
2022/08/27 04:56:12;;;;;;;6.05;1.95;;;16.60;99.90;;;;;;7391638;19;20034;-80
2022/08/27 04:58:39;;;;;;;6.70;1.67;;;16.50;99.90;;;;;;7393724;19;20014;-80
2022/08/27 05:01:06;;;;;;;6.88;2.10;;;16.50;99.90;;;;;;7393046;19;20356;-80
2022/08/27 05:03:32;;;;;;;8.50;2.22;;;16.40;99.90;;;;;;7393341;19;20018;-81
2022/08/27 05:06:03;;;;;;;7.53;1.90;;;16.40;99.90;;;;;;7392248;19;20432;-81
2022/08/27 05:08:31;;;;;;;7.30;1.75;;;16.40;99.90;;;;;;7393412;19;20011;-81
2022/08/27 05:10:59;;;;;;;7.95;1.92;;;16.40;99.90;;;;;;7392909;19;20022;-80
2022/08/27 05:13:25;;;;;;;7.82;2.20;;;16.30;99.90;;;;;;7392980;19;20416;-80
2022/08/27 05:16:08;;;;;;;5.00;1.65;;;16.30;99.90;;;;;;7393044;19;20048;-80
2022/08/27 05:18:35;;;;;;;6.43;1.90;;;16.30;99.90;;;;;;7392199;19;20037;-81
2022/08/27 05:21:02;;;;;;;6.07;1.88;;;16.30;99.90;;;;;;7392358;19;20013;-80
2022/08/27 05:23:28;;;;;;;7.63;1.83;;;16.40;99.90;;;;;;7392819;19;20007;-81
2022/08/27 05:25:55;;;;;;;6.43;1.88;;;16.40;99.90;;;;;;7391752;19;20007;-80
2022/08/27 05:28:23;;;;;;;8.20;1.95;;;16.40;99.90;;;;;;7389864;19;20011;-81
2022/08/27 05:30:51;;;;;;;4.43;1.85;;;16.40;99.90;;;;;;7390809;19;20090;-81
2022/08/27 05:33:23;;;;;;;6.18;2.20;;;16.40;99.90;;;;;;7392541;19;20011;-80
2022/08/27 05:35:54;;;;;;;7.25;2.00;;;16.40;99.90;;;;;;7390522;19;20467;-81
2022/08/27 05:38:23;;;;;;;6.90;1.90;;;16.50;99.90;;;;;;7392361;19;20025;-80
2022/08/27 05:40:49;;;;;;;6.55;1.67;;;16.50;99.90;;;;;;7391532;19;20046;-80
2022/08/27 05:43:17;;;;;;;8.27;1.90;;;16.60;99.90;;;;;;7392619;19;20022;-80
2022/08/27 05:45:46;;;;;;;8.90;1.75;;;16.60;99.90;;;;;;7392406;19;20078;-80
2022/08/27 05:48:15;;;;;;;5.60;1.75;;;16.70;99.90;;;;;;7398677;19;20033;-80
2022/08/27 05:50:42;;;;;;;9.82;1.90;;;16.80;99.90;;;;;;7399346;19;20011;-80
2022/08/27 05:53:10;;;;;;;8.18;1.80;;;16.90;99.90;;;;;;7397508;19;20014;-81
2022/08/27 05:55:43;;;;;;;7.45;1.70;;;17.00;99.90;;;;;;7399109;19;20039;-80
2022/08/27 06:01:03;;;;;;;5.22;1.52;;;17.30;99.90;;;;;;7397685;19;20370;-80
2022/08/27 06:01:05;;;;;;;5.25;1.75;;;17.30;99.90;;;;;;7399468;19;20066;-80
2022/08/27 06:03:36;;;;;;;5.97;1.58;;;17.20;99.90;;;;;;7397904;19;20019;-80
2022/08/27 06:06:08;;;;;;;7.95;1.90;;;17.20;99.90;;;;;;7397829;19;20078;-80
2022/08/27 06:08:34;;;;;;;4.82;1.50;;;17.20;99.90;;;;;;7398916;19;20014;-80
2022/08/27 06:11:01;;;;;;;8.07;1.60;;;17.20;99.90;;;;;;7398623;19;20018;-80
2022/08/27 06:13:28;;;;;;;7.97;1.70;;;17.30;99.90;;;;;;7396964;19;20018;-80
2022/08/27 06:16:16;;;;;;;8.30;1.85;;;17.30;99.90;;;;;;7397444;19;20018;-80
2022/08/27 06:18:45;;;;;;;9.13;2.08;;;17.40;99.90;;;;;;7395866;19;20014;-80
2022/08/27 06:21:16;;;;;;;6.22;1.70;;;17.40;99.90;;;;;;7398469;19;20017;-81
2022/08/27 06:23:42;;;;;;;6.47;1.80;;;17.50;99.90;;;;;;7398280;19;20010;-80
2022/08/27 06:26:11;;;;;;;7.88;1.42;;;17.70;99.90;;;;;;7395829;19;20010;-80
2022/08/27 06:28:40;;;;;;;6.68;1.48;;;17.70;99.90;;;;;;7394597;19;20026;-81
2022/08/27 06:31:07;;;;;;;9.65;1.65;;;17.70;99.90;;;;;;7398170;19;20015;-81
2022/08/27 06:33:33;;;;;;;6.95;1.58;;;17.80;99.90;;;;;;7398142;19;20078;-81
2022/08/27 06:36:00;;;;;;;5.53;1.25;;;17.80;99.90;;;;;;7397805;19;20362;-80
2022/08/27 06:38:27;;;;;;;7.43;1.60;;;17.90;99.90;;;;;;7396896;19;20373;-81
2022/08/27 06:40:55;;;;;;;6.18;1.45;;;18.00;99.90;;;;;;7397741;19;20015;-80
2022/08/27 06:43:22;;;;;;;6.13;1.42;;;18.10;99.90;;;;;;7397725;19;20015;-80
2022/08/27 06:45:48;;;;;;;9.48;1.67;;;18.20;99.90;;;;;;7396793;19;20014;-81
2022/08/27 06:48:14;;;;;;;6.93;1.63;;;18.30;99.90;;;;;;7396209;19;20007;-80
2022/08/27 06:50:41;;;;;;;7.93;1.38;;;18.30;99.90;;;;;;7396807;19;20065;-81
2022/08/27 06:53:08;;;;;;;6.13;1.42;;;18.30;99.90;;;;;;7396996;19;20010;-81
2022/08/27 06:55:42;;;;;;;7.05;1.90;;;18.30;99.90;;;;;;7397492;19;20014;-80
2022/08/27 06:58:08;;;;;;;8.50;1.63;;;18.50;99.90;;;;;;7397485;19;20014;-80
2022/08/27 07:00:34;;;;;;;6.28;1.40;;;18.60;99.90;;;;;;7397190;19;20493;-80
2022/08/27 07:03:02;;;;;;;5.93;1.40;;;18.90;99.90;;;;;;7396893;19;20014;-81
2022/08/27 07:05:28;;;;;;;11.10;1.88;;;19.00;99.90;;;;;;7394540;19;20480;-81
2022/08/27 07:07:54;;;;;;;9.25;1.63;;;19.10;99.90;;;;;;7395774;19;20022;-81
2022/08/27 07:10:20;;;;;;;8.13;1.70;;;19.10;99.90;;;;;;7397176;19;20427;-81
2022/08/27 07:12:46;;;;;;;8.63;1.58;;;19.00;99.90;;;;;;7396872;19;20010;-81
2022/08/27 07:15:15;;;;;;;9.35;1.75;;;19.00;99.90;;;;;;7396757;19;20022;-81
2022/08/27 07:17:44;;;;;;;6.30;1.50;;;19.00;99.90;;;;;;7396467;19;20011;-81
2022/08/27 07:20:15;;;;;;;12.43;1.80;;;19.00;99.90;;;;;;7394355;19;20076;-81
2022/08/27 07:22:44;;;;;;;8.27;1.55;;;19.00;99.90;;;;;;7396431;19;20042;-81
2022/08/27 07:25:14;;;;;;;10.73;1.90;;;19.00;99.90;;;;;;7394346;19;20010;-80
2022/08/27 07:27:40;;;;;;;5.57;1.25;;;19.20;99.90;;;;;;7395254;19;20010;-80
2022/08/27 07:30:10;;;;;;;8.32;1.55;;;19.60;99.90;;;;;;7396684;19;20023;-81
2022/08/27 07:32:36;;;;;;;8.38;1.48;;;19.50;99.90;;;;;;7396201;19;20041;-80
2022/08/27 07:35:02;;;;;;;10.00;1.40;;;19.40;99.90;;;;;;7395955;19;20475;-81
2022/08/27 07:37:33;;;;;;;6.82;1.52;;;19.40;99.90;;;;;;7394491;19;20017;-81
2022/08/27 07:39:58;;;;;;;5.28;1.33;;;19.40;99.90;;;;;;7395904;19;20007;-81
2022/08/27 07:45:09;;;;;;;7.43;1.48;;;19.40;99.90;;;;;;7395681;19;20014;-81
2022/08/27 07:47:35;;;;;;;10.13;1.88;;;19.50;99.90;;;;;;7394176;19;20223;-80
2022/08/27 07:50:04;;;;;;;9.13;1.50;;;19.40;99.90;;;;;;7394571;19;20006;-81
2022/08/27 07:52:29;;;;;;;7.40;1.27;;;19.30;99.90;;;;;;7393777;19;20014;-80
2022/08/27 07:54:56;;;;;;;6.63;1.50;;;19.30;99.90;;;;;;7395306;19;20011;-80
2022/08/27 07:57:22;;;;;;;7.40;1.52;;;19.20;99.90;;;;;;7394323;19;20031;-81
2022/08/27 07:59:48;;;;;;;9.65;1.88;;;19.10;99.90;;;;;;7394243;19;20014;-80
2022/08/27 08:02:14;;;;;;;9.18;1.48;;;19.00;99.90;;;;;;7393594;19;20015;-81
2022/08/27 08:04:40;;;;;;;9.15;1.38;;;18.90;99.90;;;;;;7393714;19;20033;-81
2022/08/27 08:07:06;;;;;;;9.63;1.70;;;18.90;99.90;;;;;;7391445;19;20519;-81
2022/08/27 08:09:32;;;;;;;10.65;1.70;;;19.30;99.90;;;;;;7392642;19;20010;-80
2022/08/27 08:11:58;;;;;;;9.73;2.00;;;19.30;99.90;;;;;;7394803;19;20021;-81
2022/08/27 08:14:24;;;;;;;9.10;1.40;;;19.30;99.90;;;;;;7394832;19;20388;-80
2022/08/27 08:16:50;;;;;;;8.25;1.58;;;19.60;99.90;;;;;;7394837;19;20091;-80
2022/08/27 08:19:16;;;;;;;8.48;1.63;;;19.70;99.90;;;;;;7393867;19;20035;-80
2022/08/27 08:21:42;;;;;;;7.13;1.88;;;19.80;99.90;;;;;;7394097;19;20007;-81
2022/08/27 08:24:08;;;;;;;6.93;1.45;;;20.10;99.90;;;;;;7394464;19;20014;-81
2022/08/27 08:26:34;;;;;;;12.40;1.77;;;20.30;99.90;;;;;;7393309;19;20016;-80
2022/08/27 08:29:03;;;;;;;6.95;1.45;;;20.40;99.90;;;;;;7392501;19;20011;-79
2022/08/27 08:31:30;;;;;;;6.97;1.70;;;20.40;99.90;;;;;;7392691;19;20419;-79
2022/08/27 08:33:56;;;;;;;5.88;1.20;;;20.40;99.90;;;;;;7394522;19;20502;-80
2022/08/27 08:36:21;;;;;;;8.35;1.55;;;20.30;99.90;;;;;;7394367;19;20010;-81
2022/08/27 08:38:49;;;;;;;7.43;1.77;;;20.20;99.90;;;;;;7392619;19;20011;-81
2022/08/27 08:41:27;;;;;;;12.85;1.60;;;20.30;99.90;;;;;;7393904;19;20055;-81
2022/08/27 08:43:55;;;;;;;7.93;1.48;;;20.20;99.90;;;;;;7394354;19;20074;-80
2022/08/27 08:46:31;;;;;;;11.13;1.58;;;20.10;99.90;;;;;;7395910;19;20010;-81
2022/08/27 08:49:04;;;;;;;11.15;1.70;;;20.10;99.90;;;;;;7393773;19;20010;-81
2022/08/27 08:51:39;;;;;;;8.77;2.20;;;20.00;99.90;;;;;;7392006;19;20011;-80
2022/08/27 08:54:22;;;;;;;8.35;1.50;;;20.10;99.90;;;;;;7394636;19;20134;-81
2022/08/27 08:57:26;;;;;;;7.95;1.48;;;20.00;99.90;;;;;;7393806;19;20015;-81
2022/08/27 09:00:11;;;;;;;8.13;1.38;;;20.10;99.90;;;;;;7392335;19;20014;-81
2022/08/27 09:02:37;;;;;;;9.68;1.33;;;20.20;99.90;;;;;;7393360;19;20014;-81
2022/08/27 09:05:06;;;;;;;6.05;1.17;;;20.30;99.90;;;;;;7391610;19;20376;-81
2022/08/27 09:08:14;;;;;;;8.00;1.85;;;20.30;99.90;;;;;;7391883;19;20014;-80
2022/08/27 09:10:52;;;;;;;6.70;1.38;;;20.60;99.90;;;;;;7392823;19;20010;-81
2022/08/27 09:13:25;;;;;;;8.32;1.40;;;21.10;99.90;;;;;;7393354;19;20090;-80
2022/08/27 09:15:56;;;;;;;7.30;1.15;;;21.40;99.90;;;;;;7393329;19;20007;-81
2022/08/27 09:18:23;;;;;;;9.25;1.50;;;21.30;99.90;;;;;;7392480;19;20108;-80
2022/08/27 09:20:50;;;;;;;6.88;1.20;;;21.00;99.90;;;;;;7392410;19;20485;-81
2022/08/27 09:23:24;;;;;;;9.70;1.60;;;20.80;99.90;;;;;;7398970;19;20030;-81
2022/08/27 09:25:50;;;;;;;8.68;1.65;;;20.70;99.90;;;;;;7399834;19;20078;-81
2022/08/27 09:31:19;;;;;;;;;;;20.70;99.90;;;;;;7399581;19;20381;-81
2022/08/27 09:33:45;;;;;;;8.00;1.65;;;20.80;99.90;;;;;;7400116;19;19934;-80
2022/08/27 09:36:15;;;;;;;5.93;1.30;;;20.80;99.90;;;;;;7398794;19;20042;-81
2022/08/27 09:39:00;;;;;;;6.28;1.30;;;20.90;99.90;;;;;;7400068;19;20018;-81
2022/08/27 09:41:30;;;;;;;4.90;1.23;;;20.90;99.90;;;;;;7398294;19;20011;-81
2022/08/27 09:44:05;;;;;;;6.95;1.30;;;20.80;99.90;;;;;;7399780;19;20019;-81
2022/08/27 09:46:31;;;;;;;9.27;1.67;;;20.80;99.90;;;;;;7401543;19;20384;-81
2022/08/27 09:49:12;;;;;;;7.20;1.20;;;20.80;99.90;;;;;;7399626;19;20525;-81
2022/08/27 09:51:41;;;;;;;5.68;1.23;;;20.70;99.90;;;;;;7399152;19;20007;-80
2022/08/27 09:54:08;;;;;;;6.03;1.75;;;20.50;99.90;;;;;;7399287;19;20017;-81
2022/08/27 09:56:38;;;;;;;7.85;1.80;;;20.40;99.90;;;;;;7399188;19;20010;-81
2022/08/27 09:59:05;;;;;;;6.03;1.38;;;20.20;99.90;;;;;;7399180;19;20347;-81
2022/08/27 10:01:35;;;;;;;7.93;1.40;;;20.10;99.90;;;;;;7399512;19;20007;-80
2022/08/27 10:04:09;;;;;;;7.15;1.45;;;20.50;99.90;;;;;;7399152;19;20018;-81
2022/08/27 10:06:37;;;;;;;6.95;1.55;;;20.70;99.90;;;;;;7396967;19;20015;-80
2022/08/27 10:09:12;;;;;;;7.65;2.08;;;20.90;99.90;;;;;;7398952;19;20011;-81
2022/08/27 10:11:51;;;;;;;7.18;1.48;;;21.20;99.90;;;;;;7399010;19;20142;-81
2022/08/27 10:14:25;;;;;;;5.50;1.20;;;21.30;99.90;;;;;;7397115;19;20078;-80
2022/08/27 10:17:10;;;;;;;7.68;1.70;;;21.30;99.90;;;;;;7398738;19;20023;-81
2022/08/27 10:19:39;;;;;;;7.47;1.40;;;21.50;99.90;;;;;;7392910;19;20021;-80
2022/08/27 10:22:42;;;;;;;5.07;1.10;;;21.90;99.90;;;;;;7396105;19;20078;-81
2022/08/27 10:25:33;;;;;;;8.73;1.27;;;22.20;99.90;;;;;;7395374;19;20031;-80
2022/08/27 10:28:52;;;;;;;7.35;1.40;;;22.10;99.90;;;;;;7393082;19;20337;-80
2022/08/27 10:31:50;;;;;;;8.35;1.77;;;21.80;99.90;;;;;;7394358;19;20014;-80
2022/08/27 10:34:19;;;;;;;6.40;1.23;;;21.50;99.90;;;;;;7394947;19;20021;-81
2022/08/27 10:36:57;;;;;;;9.65;1.60;;;21.50;99.90;;;;;;7393824;19;20428;-81
2022/08/27 10:39:59;;;;;;;6.25;1.10;;;21.60;99.90;;;;;;7395724;19;20487;-81
2022/08/27 10:42:34;;;;;;;8.70;1.60;;;21.80;99.90;;;;;;7395505;19;20051;-81
2022/08/27 10:45:12;;;;;;;6.85;1.27;;;21.60;99.90;;;;;;7394472;19;20014;-81
2022/08/27 10:48:13;;;;;;;10.27;1.50;;;21.50;99.90;;;;;;7395536;19;20040;-81
2022/08/27 10:50:49;;;;;;;8.45;1.80;;;21.30;99.90;;;;;;7394689;19;20546;-80
2022/08/27 10:53:25;;;;;;;8.82;1.40;;;21.30;99.90;;;;;;7395190;19;20366;-80
2022/08/27 10:56:03;;;;;;;8.57;1.63;;;21.30;99.90;;;;;;7395157;19;20010;-80
2022/08/27 10:58:53;;;;;;;5.72;1.20;;;21.20;99.90;;;;;;7393309;19;20011;-80
2022/08/27 11:01:23;;;;;;;6.07;1.50;;;21.20;99.90;;;;;;7394847;19;20047;-81
2022/08/27 11:04:00;;;;;;;8.05;1.55;;;21.10;99.90;;;;;;7395272;19;20306;-81
2022/08/27 11:06:43;;;;;;;7.38;1.30;;;21.20;99.90;;;;;;7393211;19;20036;-81
2022/08/27 11:09:25;;;;;;;7.70;1.50;;;21.10;99.90;;;;;;7392882;19;20422;-80
2022/08/27 11:11:57;;;;;;;7.82;1.50;;;21.20;99.90;;;;;;7394831;19;20015;-80
2022/08/27 11:14:34;;;;;;;8.83;1.70;;;21.30;99.90;;;;;;7394538;19;20026;-80
2022/08/27 11:17:16;;;;;;;7.97;1.50;;;21.50;99.90;;;;;;7394543;19;20307;-81
2022/08/27 11:19:49;;;;;;;;;;;21.70;99.90;;;;;;7248849;19;2859753;-81
2022/08/27 11:22:30;;;;;;;7.45;1.88;;;21.90;99.90;;;;;;7396732;19;19990;-80
2022/08/27 11:25:07;;;;;;;8.35;1.33;;;21.60;99.90;;;;;;7395111;19;20103;-82
2022/08/27 11:27:34;;;;;;;7.57;1.30;;;21.40;99.90;;;;;;7395395;19;20475;-80
2022/08/27 11:30:11;;;;;;;7.30;1.08;;;21.20;99.90;;;;;;7396034;19;20070;-81
2022/08/27 11:33:07;;;;;;;6.78;1.17;;;21.20;99.90;;;;;;7394858;19;20014;-80
2022/08/27 11:35:38;;;;;;;9.38;1.65;;;21.40;99.90;;;;;;7396009;19;20422;-81
2022/08/27 11:38:50;;;;;;;9.77;1.30;;;21.60;99.90;;;;;;7397284;19;20018;-80
2022/08/27 11:41:58;;;;;;;6.05;1.13;;;21.70;99.90;;;;;;7396110;19;20082;-80
2022/08/27 11:44:25;;;;;;;7.13;1.40;;;21.50;99.90;;;;;;7390291;19;20468;-81
2022/08/27 11:47:07;;;;;;;6.00;1.20;;;21.50;99.90;;;;;;7392445;19;20018;-81
2022/08/27 11:49:50;;;;;;;5.70;1.13;;;21.40;99.90;;;;;;7395002;19;20006;-80
2022/08/27 11:52:41;;;;;;;6.93;1.40;;;21.40;99.90;;;;;;7394887;19;20047;-80
2022/08/27 11:55:35;;;;;;;4.93;1.40;;;21.20;99.90;;;;;;7394899;19;20033;-80
2022/08/27 11:58:19;;;;;;;4.72;0.95;;;21.80;99.90;;;;;;7393773;19;20106;-81
2022/08/27 12:00:47;;;;;;;6.47;1.27;;;22.30;99.90;;;;;;7393808;19;20017;-80
2022/08/27 12:03:24;;;;;;;6.47;1.08;;;22.30;99.90;;;;;;7393653;19;20010;-81
2022/08/27 12:05:52;;;;;;;3.58;0.85;;;22.00;99.90;;;;;;7394778;19;20534;-81
2022/08/27 12:08:24;;;;;;;6.43;1.00;;;21.70;99.90;;;;;;7394907;19;20043;-80
2022/08/27 12:11:02;;;;;;;6.75;1.25;;;21.30;99.90;;;;;;7395032;19;20021;-81
2022/08/27 12:13:43;;;;;;;7.20;1.30;;;21.00;99.90;;;;;;7394698;19;20010;-80
2022/08/27 12:16:24;;;;;;;4.78;1.10;;;20.80;99.90;;;;;;7395984;19;20018;-80
2022/08/27 12:19:27;;;;;;;6.97;1.20;;;21.10;99.90;;;;;;7394033;19;20058;-80
2022/08/27 12:22:15;;;;;;;5.82;1.02;;;21.60;99.90;;;;;;7394494;19;20018;-80
2022/08/27 12:24:57;;;;;;;6.00;1.02;;;22.00;99.90;;;;;;7392642;19;20017;-81
2022/08/27 12:27:30;;;;;;;6.50;1.00;;;22.40;99.90;;;;;;7391095;19;20010;-80
2022/08/27 12:30:03;;;;;;;7.70;1.08;;;22.50;99.90;;;;;;7394473;19;20021;-80
2022/08/27 12:32:38;;;;;;;4.35;0.75;;;22.40;99.90;;;;;;7392787;19;20358;-81
2022/08/27 12:35:12;;;;;;;7.18;1.08;;;22.30;99.90;;;;;;7392859;19;20018;-80
2022/08/27 12:37:49;;;;;;;4.32;0.82;;;22.30;99.90;;;;;;7394170;19;20031;-80
2022/08/27 12:40:29;;;;;;;4.10;0.90;;;22.00;99.90;;;;;;7392467;19;20010;-81
2022/08/27 12:43:11;;;;;;;3.63;0.80;;;21.60;99.90;;;;;;7393711;19;20038;-81
2022/08/27 12:45:57;;;;;;;6.18;1.35;;;21.40;99.90;;;;;;7395932;19;20010;-80
2022/08/27 12:48:29;;;;;;;4.70;1.00;;;21.50;99.90;;;;;;7393747;19;20379;-80
2022/08/27 12:50:59;;;;;;;7.65;1.13;;;21.80;99.90;;;;;;7391571;19;20006;-81
2022/08/27 12:53:46;;;;;;;5.90;1.08;;;21.80;99.90;;;;;;7391778;19;20018;-80
2022/08/27 12:56:59;;;;;;;8.38;1.20;;;22.00;99.90;;;;;;7393026;19;20018;-80
2022/08/27 12:59:37;;;;;;;6.47;1.10;;;22.40;99.90;;;;;;7393419;19;20026;-81
2022/08/27 13:02:18;;;;;;;7.07;1.10;;;22.00;99.90;;;;;;7393413;19;20007;-80
2022/08/27 13:04:46;;;;;;;4.65;1.10;;;21.80;99.90;;;;;;7393167;19;20010;-81
2022/08/27 13:07:33;;;;;;;6.03;0.80;;;21.60;99.90;;;;;;7389757;19;20022;-81
2022/08/27 13:10:26;;;;;;;7.22;1.17;;;21.50;99.90;;;;;;7391237;19;20054;-81
2022/08/27 13:13:08;;;;;;;5.05;1.10;;;21.80;99.90;;;;;;7392969;19;20022;-80
2022/08/27 13:15:33;;;;;;;8.77;1.33;;;21.70;99.90;;;;;;7393002;19;20006;-80
2022/08/27 13:18:03;;;;;;;7.22;1.30;;;21.90;99.90;;;;;;7392538;19;20026;-81